createdAt,value
2018-07-20T00:01:28.235Z,4.13
2018-07-20T00:03:56.667Z,4.53
2018-07-20T00:06:24.971Z,4.20
2018-07-20T00:08:53.335Z,4.93
2018-07-20T00:11:21.792Z,5.40
2018-07-20T00:13:50.447Z,5.80
2018-07-20T00:16:18.748Z,5.10
2018-07-20T00:18:47.087Z,5.47
2018-07-20T00:21:15.731Z,6.30
2018-07-20T00:23:44.231Z,5.50
2018-07-20T00:26:12.528Z,6.30
2018-07-20T00:28:40.859Z,6.80
2018-07-20T00:31:09.181Z,6.10
2018-07-20T00:33:37.497Z,5.93
2018-07-20T00:36:05.800Z,6.20
2018-07-20T00:38:34.127Z,5.90
2018-07-20T00:41:02.428Z,6.00
2018-07-20T00:43:30.755Z,5.80
2018-07-20T00:45:59.071Z,5.70
2018-07-20T00:48:27.427Z,6.27
2018-07-20T00:50:55.753Z,6.20
2018-07-20T00:53:24.095Z,5.87
2018-07-20T00:55:52.477Z,5.53
2018-07-20T00:58:20.836Z,6.30
2018-07-20T01:00:49.164Z,5.77
2018-07-20T01:03:17.512Z,5.30
2018-07-20T01:05:45.813Z,5.30
2018-07-20T01:08:14.201Z,5.90
2018-07-20T01:10:42.517Z,6.10
2018-07-20T01:13:10.834Z,5.77
2018-07-20T01:15:39.163Z,5.93
2018-07-20T01:18:07.533Z,5.90
2018-07-20T01:20:35.859Z,5.93
2018-07-20T01:23:04.184Z,5.80
2018-07-20T01:25:32.481Z,5.90
2018-07-20T01:28:00.795Z,5.90
2018-07-20T01:30:29.107Z,6.70
2018-07-20T01:32:57.443Z,5.87
2018-07-20T01:35:25.747Z,5.33
2018-07-20T01:37:54.065Z,6.20
2018-07-20T01:40:22.379Z,6.13
2018-07-20T01:42:50.759Z,6.50
2018-07-20T01:45:19.131Z,5.47
2018-07-20T01:47:47.463Z,6.10
2018-07-20T01:50:15.759Z,6.20
2018-07-20T01:52:44.076Z,6.17
2018-07-20T01:55:12.402Z,5.40
2018-07-20T01:57:40.731Z,5.83
2018-07-20T02:00:09.144Z,6.60
2018-07-20T02:02:37.451Z,5.20
2018-07-20T02:05:05.845Z,6.20
2018-07-20T02:07:34.810Z,5.53
2018-07-20T02:10:03.145Z,6.20
2018-07-20T02:12:31.451Z,6.00
2018-07-20T02:14:59.765Z,5.43
2018-07-20T02:17:28.067Z,5.93
2018-07-20T02:19:56.399Z,6.17
2018-07-20T02:22:24.720Z,6.20
2018-07-20T02:24:53.069Z,5.70
2018-07-20T02:27:21.396Z,5.60
2018-07-20T02:29:49.710Z,6.30
2018-07-20T02:32:18.051Z,5.67
2018-07-20T02:34:46.365Z,5.30
2018-07-20T02:37:14.912Z,5.53
2018-07-20T02:39:43.637Z,5.80
2018-07-20T02:42:11.964Z,5.80
2018-07-20T02:44:40.277Z,5.93
2018-07-20T02:47:08.589Z,5.90
2018-07-20T02:49:37.054Z,5.87
2018-07-20T02:52:05.364Z,5.73
2018-07-20T02:54:33.684Z,6.80
2018-07-20T02:57:02.003Z,6.40
2018-07-20T02:59:30.341Z,6.10
2018-07-20T03:01:58.655Z,5.83
2018-07-20T03:04:26.987Z,6.00
2018-07-20T03:06:55.284Z,6.13
2018-07-20T03:09:23.614Z,5.10
2018-07-20T03:11:51.947Z,5.67
2018-07-20T03:14:20.340Z,6.20
2018-07-20T03:16:48.644Z,5.77
2018-07-20T03:19:16.980Z,5.90
2018-07-20T03:21:45.387Z,6.30
2018-07-20T03:24:13.719Z,5.67
2018-07-20T03:26:42.031Z,5.50
2018-07-20T03:29:10.355Z,5.87
2018-07-20T03:31:38.753Z,6.07
2018-07-20T03:34:07.081Z,5.70
2018-07-20T03:36:35.401Z,6.50
2018-07-20T03:39:05.657Z,5.83
2018-07-20T03:41:33.980Z,6.33
2018-07-20T03:44:02.293Z,5.93
2018-07-20T03:46:30.589Z,6.27
2018-07-20T03:48:58.948Z,5.70
2018-07-20T03:51:27.280Z,6.33
2018-07-20T03:53:55.608Z,6.80
2018-07-20T03:56:23.933Z,6.20
2018-07-20T03:58:52.249Z,6.53
2018-07-20T04:01:20.793Z,5.73
2018-07-20T04:03:49.119Z,6.30
2018-07-20T04:06:17.559Z,5.97
2018-07-20T04:08:45.879Z,5.90
2018-07-20T04:11:14.208Z,5.80
2018-07-20T04:13:42.500Z,6.03
2018-07-20T04:16:10.831Z,7.20
2018-07-20T04:18:39.129Z,6.50
2018-07-20T04:21:07.532Z,6.90
2018-07-20T04:23:35.833Z,5.90
2018-07-20T04:26:04.195Z,5.70
2018-07-20T04:28:32.527Z,6.30
2018-07-20T04:31:00.859Z,5.47
2018-07-20T04:33:29.152Z,5.97
2018-07-20T04:35:57.468Z,5.83
2018-07-20T04:38:25.775Z,5.93
2018-07-20T04:40:54.193Z,6.43
2018-07-20T04:43:22.485Z,5.50
2018-07-20T04:45:50.913Z,5.40
2018-07-20T04:48:19.216Z,5.00
2018-07-20T04:50:47.539Z,5.03
2018-07-20T04:53:15.847Z,4.93
2018-07-20T04:55:44.522Z,5.40
2018-07-20T04:58:12.855Z,5.23
2018-07-20T05:00:41.165Z,4.93
2018-07-20T05:03:09.462Z,4.73
2018-07-20T05:05:37.871Z,5.47
2018-07-20T05:08:06.483Z,5.30
2018-07-20T05:10:34.792Z,5.13
2018-07-20T05:13:03.092Z,5.13
2018-07-20T05:15:31.415Z,5.50
2018-07-20T05:17:59.723Z,5.07
2018-07-20T05:20:28.204Z,5.73
2018-07-20T05:22:56.502Z,5.63
2018-07-20T05:25:24.824Z,5.63
2018-07-20T05:27:53.118Z,5.60
2018-07-20T05:30:21.428Z,5.43
2018-07-20T05:32:49.731Z,5.60
2018-07-20T05:35:18.058Z,5.30
2018-07-20T05:37:46.368Z,5.57
2018-07-20T05:40:14.690Z,5.87
2018-07-20T05:42:43.033Z,5.70
2018-07-20T05:45:11.365Z,5.83
2018-07-20T05:47:39.660Z,5.30
2018-07-20T05:50:08.424Z,5.50
2018-07-20T05:52:36.820Z,5.30
2018-07-20T05:55:05.367Z,5.60
2018-07-20T05:57:33.652Z,5.37
2018-07-20T06:00:02.019Z,6.27
2018-07-20T06:02:30.560Z,5.63
2018-07-20T06:04:58.911Z,6.53
2018-07-20T06:07:27.237Z,5.70
2018-07-20T06:09:55.533Z,5.77
2018-07-20T06:12:23.870Z,5.83
2018-07-20T06:14:52.175Z,5.53
2018-07-20T06:17:20.503Z,6.00
2018-07-20T06:19:48.801Z,6.40
2018-07-20T06:22:17.129Z,6.33
2018-07-20T06:24:45.435Z,5.43
2018-07-20T06:27:13.885Z,5.53
2018-07-20T06:29:42.225Z,6.20
2018-07-20T06:32:10.595Z,6.30
2018-07-20T06:34:38.931Z,5.60
2018-07-20T06:37:07.326Z,5.50
2018-07-20T06:39:35.620Z,5.13
2018-07-20T06:42:03.974Z,5.57
2018-07-20T06:44:32.265Z,4.87
2018-07-20T06:47:00.569Z,5.00
2018-07-20T06:49:28.953Z,4.80
2018-07-20T06:51:57.384Z,4.57
2018-07-20T06:54:25.679Z,5.70
2018-07-20T06:56:54.092Z,5.60
2018-07-20T06:59:22.498Z,5.93
2018-07-20T07:01:50.839Z,4.80
2018-07-20T07:04:19.146Z,5.23
2018-07-20T07:06:47.524Z,5.40
2018-07-20T07:09:15.900Z,4.70
2018-07-20T07:11:44.191Z,5.07
2018-07-20T07:14:12.488Z,5.10
2018-07-20T07:16:40.830Z,5.70
2018-07-20T07:19:09.152Z,4.17
2018-07-20T07:21:37.480Z,5.07
2018-07-20T07:24:05.962Z,3.90
2018-07-20T07:26:34.290Z,4.27
2018-07-20T07:29:02.602Z,4.67
2018-07-20T07:31:30.917Z,4.70
2018-07-20T07:33:59.345Z,4.20
2018-07-20T07:36:27.675Z,4.53
2018-07-20T07:38:55.990Z,4.40
2018-07-20T07:41:24.301Z,4.33
2018-07-20T07:43:52.623Z,3.90
2018-07-20T07:46:20.951Z,4.70
2018-07-20T07:48:49.020Z,4.20
2018-07-20T07:51:17.347Z,4.73
2018-07-20T07:53:45.667Z,5.10
2018-07-20T07:56:14.010Z,5.00
2018-07-20T07:58:42.325Z,4.50
2018-07-20T08:01:10.640Z,5.20
2018-07-20T08:03:38.958Z,4.33
2018-07-20T08:06:07.274Z,4.80
2018-07-20T08:08:35.581Z,4.70
2018-07-20T08:11:03.882Z,4.33
2018-07-20T08:13:32.241Z,4.60
2018-07-20T08:16:00.547Z,4.30
2018-07-20T08:18:28.881Z,4.70
2018-07-20T08:20:57.196Z,4.20
2018-07-20T08:23:25.519Z,5.07
2018-07-20T08:25:53.804Z,4.67
2018-07-20T08:28:22.143Z,4.70
2018-07-20T08:30:50.456Z,4.13
2018-07-20T08:33:18.784Z,4.50
2018-07-20T08:35:47.088Z,4.60
2018-07-20T08:38:15.413Z,4.77
2018-07-20T08:40:43.734Z,4.77
2018-07-20T08:43:12.071Z,4.37
2018-07-20T08:45:40.377Z,4.60
2018-07-20T08:48:08.684Z,4.43
2018-07-20T08:50:37.011Z,4.03
2018-07-20T08:53:05.590Z,4.90
2018-07-20T08:55:33.893Z,5.10
2018-07-20T08:58:02.225Z,4.47
2018-07-20T09:00:30.535Z,4.67
2018-07-20T09:02:58.900Z,4.87
2018-07-20T09:05:27.233Z,4.57
2018-07-20T09:07:55.598Z,4.50
2018-07-20T09:10:23.917Z,5.20
2018-07-20T09:12:52.471Z,5.33
2018-07-20T09:15:20.790Z,5.40
2018-07-20T09:17:49.138Z,4.60
2018-07-20T09:20:17.516Z,4.20
2018-07-20T09:22:45.835Z,5.40
2018-07-20T09:25:14.349Z,5.20
2018-07-20T09:27:42.657Z,5.30
2018-07-20T09:30:10.965Z,4.60
2018-07-20T09:32:39.273Z,5.40
2018-07-20T09:35:07.711Z,4.40
2018-07-20T09:37:36.057Z,4.57
2018-07-20T09:40:04.631Z,4.67
2018-07-20T09:42:32.962Z,5.00
2018-07-20T09:45:01.288Z,4.67
2018-07-20T09:47:29.605Z,5.20
2018-07-20T09:49:57.911Z,5.10
2018-07-20T09:52:26.221Z,5.50
2018-07-20T09:54:54.527Z,4.83
2018-07-20T09:57:22.828Z,4.40
2018-07-20T09:59:51.274Z,5.40
2018-07-20T10:02:19.581Z,6.23
2018-07-20T10:04:48.752Z,5.00
2018-07-20T10:07:17.068Z,5.27
2018-07-20T10:09:45.399Z,5.40
2018-07-20T10:12:13.701Z,6.03
2018-07-20T10:14:42.024Z,5.20
2018-07-20T10:17:10.849Z,5.20
2018-07-20T10:19:39.224Z,5.10
2018-07-20T10:22:07.803Z,5.63
2018-07-20T10:24:36.225Z,5.50
2018-07-20T10:27:04.733Z,6.37
2018-07-20T10:29:33.056Z,5.60
2018-07-20T10:32:01.373Z,5.70
2018-07-20T10:34:29.685Z,5.10
2018-07-20T10:36:58.010Z,5.77
2018-07-20T10:39:26.333Z,5.20
2018-07-20T10:41:54.643Z,5.17
2018-07-20T10:44:22.961Z,5.27
2018-07-20T10:46:51.325Z,5.60
2018-07-20T10:49:19.628Z,5.57
2018-07-20T10:51:47.924Z,5.33
2018-07-20T10:54:16.311Z,5.23
2018-07-20T10:56:44.620Z,5.20
2018-07-20T10:59:12.952Z,5.67
2018-07-20T11:01:41.417Z,5.47
2018-07-20T11:04:09.742Z,4.90
2018-07-20T11:06:38.133Z,5.60
2018-07-20T11:09:07.811Z,6.00
2018-07-20T11:11:36.318Z,6.10
2018-07-20T11:14:04.719Z,5.37
2018-07-20T11:16:33.111Z,5.27
2018-07-20T11:19:01.438Z,6.20
2018-07-20T11:21:29.757Z,5.63
2018-07-20T11:23:58.065Z,5.73
2018-07-20T11:26:26.376Z,5.33
2018-07-20T11:28:54.733Z,5.60
2018-07-20T11:31:23.092Z,5.27
2018-07-20T11:33:51.404Z,5.67
2018-07-20T11:36:19.715Z,5.63
2018-07-20T11:38:48.025Z,5.80
2018-07-20T11:41:16.334Z,5.47
2018-07-20T11:43:44.666Z,5.90
2018-07-20T11:46:12.962Z,5.37
2018-07-20T11:48:41.295Z,5.80
2018-07-20T11:51:09.659Z,5.97
2018-07-20T11:53:37.977Z,5.03
2018-07-20T11:56:06.330Z,5.20
2018-07-20T11:58:34.680Z,5.57
2018-07-20T12:01:03.031Z,5.40
2018-07-20T12:03:31.347Z,6.27
2018-07-20T12:05:59.679Z,6.20
2018-07-20T12:08:27.980Z,5.63
2018-07-20T12:10:56.317Z,5.77
2018-07-20T12:13:24.619Z,5.70
2018-07-20T12:15:52.995Z,6.17
2018-07-20T12:18:21.336Z,6.10
2018-07-20T12:20:49.673Z,5.57
2018-07-20T12:23:17.961Z,5.70
2018-07-20T12:25:46.310Z,6.07
2018-07-20T12:28:14.679Z,5.90
2018-07-20T12:30:43.105Z,6.87
2018-07-20T12:33:11.423Z,5.97
2018-07-20T12:35:39.749Z,6.90
2018-07-20T12:38:08.079Z,6.80
2018-07-20T12:40:36.408Z,7.10
2018-07-20T12:43:04.751Z,6.97
2018-07-20T12:45:33.221Z,6.27
2018-07-20T12:48:01.941Z,7.47
2018-07-20T12:50:30.363Z,8.00
2018-07-20T12:52:58.673Z,7.30
2018-07-20T12:55:27.007Z,7.40
2018-07-20T12:57:55.335Z,7.10
2018-07-20T13:00:23.756Z,7.07
2018-07-20T13:02:52.107Z,7.50
2018-07-20T13:05:20.431Z,8.30
2018-07-20T13:07:48.948Z,7.90
2018-07-20T13:10:17.360Z,8.37
2018-07-20T13:12:45.669Z,7.90
2018-07-20T13:15:14.011Z,9.43
2018-07-20T13:17:42.315Z,7.80
2018-07-20T13:20:10.637Z,7.40
2018-07-20T13:22:38.948Z,8.40
2018-07-20T13:25:07.283Z,7.93
2018-07-20T13:27:35.573Z,7.73
2018-07-20T13:30:05.037Z,8.90
2018-07-20T13:32:33.341Z,7.67
2018-07-20T13:35:01.729Z,8.70
2018-07-20T13:37:30.118Z,8.90
2018-07-20T13:39:58.451Z,8.03
2018-07-20T13:42:26.778Z,9.70
2018-07-20T13:44:55.119Z,8.90
2018-07-20T13:47:23.446Z,9.07
2018-07-20T13:49:51.805Z,8.60
2018-07-20T13:52:20.105Z,10.07
2018-07-20T13:54:48.418Z,9.40
2018-07-20T13:57:16.731Z,9.30
2018-07-20T13:59:45.099Z,10.10
2018-07-20T14:02:13.431Z,9.27
2018-07-20T14:04:41.743Z,9.53
2018-07-20T14:07:10.079Z,9.70
2018-07-20T14:09:38.603Z,9.33
2018-07-20T14:12:06.920Z,8.53
2018-07-20T14:14:35.212Z,10.50
2018-07-20T14:17:03.776Z,9.23
2018-07-20T14:19:32.097Z,10.37
2018-07-20T14:22:00.439Z,8.97
2018-07-20T14:24:28.887Z,8.67
2018-07-20T14:26:57.301Z,8.27
2018-07-20T14:29:25.599Z,8.27
2018-07-20T14:31:54.160Z,8.23
2018-07-20T14:34:22.418Z,9.07
2018-07-20T14:36:50.759Z,9.50
2018-07-20T14:39:19.115Z,9.47
2018-07-20T14:41:47.451Z,9.87
2018-07-20T14:44:15.763Z,9.57
2018-07-20T14:46:44.105Z,8.13
2018-07-20T14:49:12.415Z,9.17
2018-07-20T14:51:40.765Z,9.40
2018-07-20T14:54:09.104Z,11.10
2018-07-20T14:56:37.444Z,10.67
2018-07-20T14:59:05.848Z,10.33
2018-07-20T15:01:34.234Z,9.67
2018-07-20T15:04:02.517Z,10.13
2018-07-20T15:06:30.855Z,10.50
2018-07-20T15:08:59.156Z,9.00
2018-07-20T15:11:27.491Z,9.47
2018-07-20T15:13:55.955Z,8.90
2018-07-20T15:16:24.295Z,10.20
2018-07-20T15:18:52.625Z,9.50
2018-07-20T15:21:20.958Z,9.40
2018-07-20T15:23:49.286Z,8.77
2018-07-20T15:26:17.619Z,9.43
2018-07-20T15:28:46.047Z,9.43
2018-07-20T15:31:14.370Z,10.23
2018-07-20T15:33:42.717Z,9.80
2018-07-20T15:36:11.171Z,9.87
2018-07-20T15:38:39.711Z,10.03
2018-07-20T15:41:08.531Z,11.20
2018-07-20T15:43:37.555Z,12.00
2018-07-20T15:46:06.316Z,11.20
2018-07-20T15:48:34.257Z,11.23
2018-07-20T15:51:02.581Z,9.90
2018-07-20T15:53:37.908Z,8.87
2018-07-20T15:55:59.671Z,10.40
2018-07-20T15:58:28.270Z,10.37
2018-07-20T16:00:57.752Z,8.60
2018-07-20T16:03:26.091Z,8.13
2018-07-20T16:05:54.436Z,8.70
2018-07-20T16:08:22.737Z,9.80
2018-07-20T16:10:51.080Z,8.57
2018-07-20T16:13:19.408Z,7.50
2018-07-20T16:15:47.705Z,9.00
2018-07-20T16:18:16.025Z,8.07
2018-07-20T16:20:44.424Z,7.60
2018-07-20T16:23:12.779Z,7.17
2018-07-20T16:25:41.226Z,7.80
2018-07-20T16:28:09.477Z,7.90
2018-07-20T16:30:37.823Z,7.93
2018-07-20T16:33:06.154Z,7.00
2018-07-20T16:35:34.441Z,7.37
2018-07-20T16:38:02.760Z,7.40
2018-07-20T16:40:31.115Z,7.03
2018-07-20T16:42:59.871Z,6.90
2018-07-20T16:45:28.190Z,7.40
2018-07-20T16:47:56.505Z,7.40
2018-07-20T16:50:24.817Z,7.30
2018-07-20T16:52:53.121Z,7.43
2018-07-20T16:55:21.412Z,7.00
2018-07-20T16:57:49.734Z,7.30
2018-07-20T17:00:18.076Z,7.30
2018-07-20T17:02:46.405Z,6.90
2018-07-20T17:05:14.775Z,6.77
2018-07-20T17:07:43.107Z,7.23
2018-07-20T17:10:11.459Z,7.10
2018-07-20T17:12:39.836Z,6.90
2018-07-20T17:15:08.163Z,7.27
2018-07-20T17:17:36.542Z,6.63
2018-07-20T17:20:04.919Z,7.17
2018-07-20T17:22:33.250Z,6.70
2018-07-20T17:25:01.621Z,7.23
2018-07-20T17:27:29.958Z,6.60
2018-07-20T17:29:58.256Z,7.30
2018-07-20T17:32:26.596Z,6.60
2018-07-20T17:34:54.891Z,7.40
2018-07-20T17:37:23.442Z,7.03
2018-07-20T17:39:51.713Z,6.37
2018-07-20T17:42:20.133Z,7.13
2018-07-20T17:44:48.432Z,5.97
2018-07-20T17:47:16.872Z,6.77
2018-07-20T17:49:45.215Z,6.77
2018-07-20T17:52:13.537Z,6.70
2018-07-20T17:54:41.877Z,6.83
2018-07-20T17:57:10.251Z,6.80
2018-07-20T17:59:38.576Z,7.03
2018-07-20T18:02:07.030Z,7.70
2018-07-20T18:04:35.506Z,7.00
2018-07-20T18:07:03.832Z,7.30
2018-07-20T18:09:32.167Z,6.80
2018-07-20T18:12:00.469Z,6.60
2018-07-20T18:14:28.820Z,6.67
2018-07-20T18:16:57.129Z,5.87
2018-07-20T18:19:25.460Z,6.47
2018-07-20T18:21:53.757Z,7.47
2018-07-20T18:24:22.222Z,9.47
2018-07-20T18:26:50.619Z,11.50
2018-07-20T18:29:18.983Z,8.73
2018-07-20T18:31:47.300Z,11.63
2018-07-20T18:34:15.635Z,13.93
2018-07-20T18:36:43.975Z,6.87
2018-07-20T18:39:12.940Z,6.43
2018-07-20T18:41:41.742Z,6.40
2018-07-20T18:44:10.449Z,5.20
2018-07-20T18:46:38.945Z,7.00
2018-07-20T18:49:07.399Z,5.80
2018-07-20T18:51:35.727Z,5.60
2018-07-20T18:54:04.091Z,5.33
2018-07-20T18:56:32.389Z,6.03
2018-07-20T18:59:00.736Z,5.57
2018-07-20T19:01:29.057Z,6.30
2018-07-20T19:03:57.379Z,6.30
2018-07-20T19:06:25.685Z,5.93
2018-07-20T19:08:54.035Z,5.50
2018-07-20T19:11:22.339Z,6.37
2018-07-20T19:13:51.032Z,6.33
2018-07-20T19:16:19.365Z,6.57
2018-07-20T19:18:47.800Z,6.40
2018-07-20T19:21:16.128Z,7.67
2018-07-20T19:23:44.524Z,7.20
2018-07-20T19:26:12.777Z,6.60
2018-07-20T19:28:41.103Z,6.87
2018-07-20T19:31:09.419Z,7.00
2018-07-20T19:33:37.751Z,7.97
2018-07-20T19:36:06.090Z,7.60
2018-07-20T19:38:34.473Z,6.90
2018-07-20T19:41:02.795Z,7.77
2018-07-20T19:43:31.186Z,7.70
2018-07-20T19:45:59.497Z,6.13
2018-07-20T19:48:27.896Z,7.43
2018-07-20T19:50:56.213Z,6.80
2018-07-20T19:53:24.564Z,7.20
2018-07-20T19:55:52.874Z,7.10
2018-07-20T19:58:21.228Z,7.47
2018-07-20T20:00:49.655Z,7.20
2018-07-20T20:03:17.995Z,7.73
2018-07-20T20:05:49.615Z,8.00
2018-07-20T20:08:17.935Z,6.83
2018-07-20T20:10:46.295Z,7.80
2018-07-20T20:13:14.632Z,7.93
2018-07-20T20:15:43.182Z,7.73
2018-07-20T20:18:11.419Z,8.13
2018-07-20T20:20:39.759Z,8.67
2018-07-20T20:23:08.176Z,8.17
2018-07-20T20:25:36.519Z,8.10
2018-07-20T20:28:04.953Z,7.53
2018-07-20T20:30:33.284Z,7.47
2018-07-20T20:33:01.595Z,8.20
2018-07-20T20:35:29.945Z,9.07
2018-07-20T20:37:58.245Z,7.80
2018-07-20T20:40:26.577Z,8.10
2018-07-20T20:42:54.900Z,8.87
2018-07-20T20:45:23.251Z,7.50
2018-07-20T20:47:51.556Z,7.63
2018-07-20T20:50:19.914Z,7.33
2018-07-20T20:52:48.247Z,8.07
2018-07-20T20:55:16.608Z,7.90
2018-07-20T20:57:44.926Z,8.00
2018-07-20T21:00:13.266Z,7.50
2018-07-20T21:02:41.567Z,8.10
2018-07-20T21:05:09.913Z,7.77
2018-07-20T21:07:38.231Z,7.53
2018-07-20T21:10:06.737Z,7.53
2018-07-20T21:12:35.061Z,8.07
2018-07-20T21:15:03.923Z,8.00
2018-07-20T21:17:32.263Z,7.60
2018-07-20T21:20:00.584Z,7.77
2018-07-20T21:22:28.899Z,7.93
2018-07-20T21:24:57.213Z,8.07
2018-07-20T21:27:25.540Z,8.10
2018-07-20T21:29:53.573Z,7.17
2018-07-20T21:32:21.869Z,8.77
2018-07-20T21:34:50.235Z,7.90
2018-07-20T21:37:18.551Z,8.57
2018-07-20T21:39:46.875Z,8.13
2018-07-20T21:42:15.220Z,7.80
2018-07-20T21:44:43.899Z,7.63
2018-07-20T21:47:12.215Z,7.50
2018-07-20T21:49:40.533Z,7.67
2018-07-20T21:52:08.832Z,7.67
2018-07-20T21:54:37.158Z,7.27
2018-07-20T21:57:05.467Z,7.80
2018-07-20T21:59:33.809Z,7.20
2018-07-20T22:02:02.105Z,8.43
2018-07-20T22:04:30.420Z,8.00
2018-07-20T22:06:58.773Z,7.70
2018-07-20T22:09:27.081Z,7.60
2018-07-20T22:11:55.401Z,7.90
2018-07-20T22:14:23.696Z,8.30
2018-07-20T22:16:52.047Z,7.63
2018-07-20T22:19:20.367Z,7.80
2018-07-20T22:21:48.696Z,7.20
2018-07-20T22:24:17.132Z,7.67
2018-07-20T22:26:45.461Z,7.43
2018-07-20T22:29:13.781Z,8.17
2018-07-20T22:31:42.148Z,7.33
2018-07-20T22:34:10.474Z,7.23
2018-07-20T22:36:38.957Z,7.37
2018-07-20T22:39:10.627Z,7.83
2018-07-20T22:41:38.976Z,8.07
2018-07-20T22:44:07.306Z,7.50
2018-07-20T22:46:35.366Z,8.10
2018-07-20T22:49:03.706Z,7.80
2018-07-20T22:51:32.107Z,7.27
2018-07-20T22:54:00.435Z,7.53
2018-07-20T22:56:28.756Z,7.03
2018-07-20T22:58:57.128Z,7.57
2018-07-20T23:01:25.453Z,7.43
2018-07-20T23:03:53.956Z,7.43
2018-07-20T23:06:22.311Z,7.60
2018-07-20T23:08:50.617Z,7.67
2018-07-20T23:11:18.948Z,6.73
2018-07-20T23:13:47.244Z,7.30
2018-07-20T23:16:15.579Z,7.53
2018-07-20T23:18:43.908Z,7.40
2018-07-20T23:21:12.352Z,8.93
2018-07-20T23:23:40.697Z,8.37
2018-07-20T23:26:09.013Z,8.00
2018-07-20T23:28:37.342Z,7.50
2018-07-20T23:31:05.900Z,6.47
2018-07-20T23:33:34.219Z,7.90
2018-07-20T23:36:02.529Z,7.73
2018-07-20T23:38:30.855Z,7.97
2018-07-20T23:40:59.180Z,7.40
2018-07-20T23:43:27.503Z,8.07
2018-07-20T23:45:55.924Z,7.83
2018-07-20T23:48:24.233Z,8.30
2018-07-20T23:50:52.555Z,7.93
2018-07-20T23:53:20.902Z,7.70
2018-07-20T23:55:49.450Z,7.23
2018-07-20T23:58:17.779Z,7.60
